sensor_id;sensor_type;location;lat;lon;timestamp;pressure;altitude;pressure_sealevel;temperature;humidity
8318;BME280;4196;48.926;8.964;2023-12-22T00:00:16;97758.91;;;7.10;100.00
8318;BME280;4196;48.926;8.964;2023-12-22T00:03:03;97758.75;;;7.26;100.00
8318;BME280;4196;48.926;8.964;2023-12-22T00:05:50;97757.00;;;7.27;100.00
8318;BME280;4196;48.926;8.964;2023-12-22T00:08:36;97753.59;;;7.25;100.00
8318;BME280;4196;48.926;8.964;2023-12-22T00:11:23;97757.88;;;7.28;100.00
8318;BME280;4196;48.926;8.964;2023-12-22T00:14:09;97743.28;;;7.25;100.00
8318;BME280;4196;48.926;8.964;2023-12-22T00:16:56;97773.16;;;7.41;100.00
8318;BME280;4196;48.926;8.964;2023-12-22T00:19:42;97774.06;;;7.40;100.00
8318;BME280;4196;48.926;8.964;2023-12-22T00:22:29;97790.25;;;7.48;100.00
8318;BME280;4196;48.926;8.964;2023-12-22T00:25:16;97819.56;;;7.38;100.00
8318;BME280;4196;48.926;8.964;2023-12-22T00:28:03;97830.94;;;7.14;100.00
8318;BME280;4196;48.926;8.964;2023-12-22T00:30:50;97830.19;;;7.01;100.00
8318;BME280;4196;48.926;8.964;2023-12-22T00:33:36;97833.69;;;6.91;100.00
8318;BME280;4196;48.926;8.964;2023-12-22T00:36:23;97846.63;;;6.82;100.00
8318;BME280;4196;48.926;8.964;2023-12-22T00:39:11;97854.28;;;6.88;100.00
8318;BME280;4196;48.926;8.964;2023-12-22T00:41:57;97843.13;;;6.92;100.00
8318;BME280;4196;48.926;8.964;2023-12-22T00:44:44;97823.53;;;6.77;100.00
8318;BME280;4196;48.926;8.964;2023-12-22T00:47:30;97850.84;;;6.91;100.00
8318;BME280;4196;48.926;8.964;2023-12-22T00:50:16;97837.91;;;6.98;100.00
8318;BME280;4196;48.926;8.964;2023-12-22T00:53:03;97841.38;;;6.97;100.00
8318;BME280;4196;48.926;8.964;2023-12-22T00:55:50;97845.66;;;6.97;100.00
8318;BME280;4196;48.926;8.964;2023-12-22T00:58:36;97829.38;;;6.95;100.00
8318;BME280;4196;48.926;8.964;2023-12-22T01:01:22;97837.03;;;7.04;100.00
8318;BME280;4196;48.926;8.964;2023-12-22T01:04:10;97823.25;;;7.07;100.00
8318;BME280;4196;48.926;8.964;2023-12-22T01:06:56;97818.97;;;7.09;100.00
8318;BME280;4196;48.926;8.964;2023-12-22T01:09:42;97803.56;;;7.06;100.00
8318;BME280;4196;48.926;8.964;2023-12-22T01:12:30;97823.28;;;7.08;100.00
8318;BME280;4196;48.926;8.964;2023-12-22T01:15:16;97811.16;;;7.19;100.00
8318;BME280;4196;48.926;8.964;2023-12-22T01:18:03;97812.03;;;7.14;100.00
8318;BME280;4196;48.926;8.964;2023-12-22T01:20:50;97807.03;;;7.00;100.00
8318;BME280;4196;48.926;8.964;2023-12-22T01:23:36;97824.09;;;7.12;100.00
8318;BME280;4196;48.926;8.964;2023-12-22T01:26:23;97832.56;;;7.23;100.00
8318;BME280;4196;48.926;8.964;2023-12-22T01:29:09;97818.03;;;7.19;100.00
8318;BME280;4196;48.926;8.964;2023-12-22T01:31:56;97815.50;;;7.13;100.00
8318;BME280;4196;48.926;8.964;2023-12-22T01:34:42;97824.06;;;7.15;100.00
8318;BME280;4196;48.926;8.964;2023-12-22T01:37:29;97833.44;;;7.20;100.00
8318;BME280;4196;48.926;8.964;2023-12-22T01:40:16;97836.84;;;7.24;100.00
8318;BME280;4196;48.926;8.964;2023-12-22T01:43:03;97818.94;;;7.15;100.00
8318;BME280;4196;48.926;8.964;2023-12-22T01:45:52;97840.25;;;7.28;100.00
8318;BME280;4196;48.926;8.964;2023-12-22T01:48:41;97851.41;;;7.28;100.00
8318;BME280;4196;48.926;8.964;2023-12-22T01:51:32;97828.31;;;7.22;100.00
8318;BME280;4196;48.926;8.964;2023-12-22T01:54:19;97840.25;;;7.29;100.00
8318;BME280;4196;48.926;8.964;2023-12-22T01:57:05;97830.91;;;7.16;100.00
8318;BME280;4196;48.926;8.964;2023-12-22T01:59:52;97841.13;;;7.25;99.23
8318;BME280;4196;48.926;8.964;2023-12-22T02:02:40;97836.88;;;7.22;97.38
8318;BME280;4196;48.926;8.964;2023-12-22T02:05:28;97851.47;;;7.22;97.76
8318;BME280;4196;48.926;8.964;2023-12-22T02:08:17;97838.69;;;7.11;96.48
8318;BME280;4196;48.926;8.964;2023-12-22T02:11:04;97861.84;;;7.10;96.12
8318;BME280;4196;48.926;8.964;2023-12-22T02:13:51;97842.97;;;7.12;96.81
8318;BME280;4196;48.926;8.964;2023-12-22T02:16:46;97844.75;;;7.07;96.85
8318;BME280;4196;48.926;8.964;2023-12-22T02:19:42;97851.63;;;7.04;97.17
8318;BME280;4196;48.926;8.964;2023-12-22T02:22:29;97865.44;;;6.90;97.02
8318;BME280;4196;48.926;8.964;2023-12-22T02:25:16;97854.28;;;6.93;98.50
8318;BME280;4196;48.926;8.964;2023-12-22T02:28:06;97866.28;;;6.92;98.64
8318;BME280;4196;48.926;8.964;2023-12-22T02:31:02;97856.81;;;6.94;99.79
8318;BME280;4196;48.926;8.964;2023-12-22T02:33:52;97858.56;;;6.91;100.00
8318;BME280;4196;48.926;8.964;2023-12-22T02:36:40;97863.63;;;7.01;98.93
8318;BME280;4196;48.926;8.964;2023-12-22T02:39:28;97840.56;;;6.92;99.55
8318;BME280;4196;48.926;8.964;2023-12-22T02:42:15;97851.63;;;7.04;98.98
8318;BME280;4196;48.926;8.964;2023-12-22T02:45:04;97857.63;;;6.99;99.11
8318;BME280;4196;48.926;8.964;2023-12-22T02:47:51;97868.69;;;7.14;99.46
8318;BME280;4196;48.926;8.964;2023-12-22T02:50:38;97832.63;;;7.14;99.95
8318;BME280;4196;48.926;8.964;2023-12-22T02:53:24;97814.69;;;7.08;99.53
8318;BME280;4196;48.926;8.964;2023-12-22T02:56:11;97841.13;;;7.25;98.76
8318;BME280;4196;48.926;8.964;2023-12-22T02:58:58;97763.47;;;6.82;98.59
8318;BME280;4196;48.926;8.964;2023-12-22T03:01:44;97834.28;;;7.21;98.45
8318;BME280;4196;48.926;8.964;2023-12-22T03:04:31;97839.44;;;7.21;98.74
8318;BME280;4196;48.926;8.964;2023-12-22T03:07:18;97854.00;;;7.26;98.14
8318;BME280;4196;48.926;8.964;2023-12-22T03:10:04;97840.28;;;7.26;97.57
8318;BME280;4196;48.926;8.964;2023-12-22T03:12:51;97853.09;;;7.31;97.55
8318;BME280;4196;48.926;8.964;2023-12-22T03:15:38;97848.78;;;7.33;95.49
8318;BME280;4196;48.926;8.964;2023-12-22T03:18:24;97846.25;;;7.28;95.15
8318;BME280;4196;48.926;8.964;2023-12-22T03:21:17;97859.09;;;7.31;93.99
8318;BME280;4196;48.926;8.964;2023-12-22T03:24:05;97837.69;;;7.29;93.53
8318;BME280;4196;48.926;8.964;2023-12-22T03:26:51;97847.03;;;7.38;93.75
8318;BME280;4196;48.926;8.964;2023-12-22T03:29:38;97884.69;;;7.49;92.26
8318;BME280;4196;48.926;8.964;2023-12-22T03:32:24;97839.28;;;7.36;91.71
8318;BME280;4196;48.926;8.964;2023-12-22T03:35:11;97820.66;;;7.13;90.81
8318;BME280;4196;48.926;8.964;2023-12-22T03:37:57;97857.31;;;7.36;91.01
8318;BME280;4196;48.926;8.964;2023-12-22T03:40:43;97880.44;;;7.42;90.80
8318;BME280;4196;48.926;8.964;2023-12-22T03:43:30;97872.69;;;7.48;89.96
8318;BME280;4196;48.926;8.964;2023-12-22T03:46:17;97865.03;;;7.36;90.54
8318;BME280;4196;48.926;8.964;2023-12-22T03:49:05;97879.69;;;7.34;92.33
8318;BME280;4196;48.926;8.964;2023-12-22T03:51:51;97867.13;;;6.94;100.00
8318;BME280;4196;48.926;8.964;2023-12-22T03:54:38;97823.03;;;6.19;100.00
8318;BME280;4196;48.926;8.964;2023-12-22T03:57:24;97860.78;;;6.04;100.00
8318;BME280;4196;48.926;8.964;2023-12-22T04:00:11;97860.84;;;5.77;100.00
8318;BME280;4196;48.926;8.964;2023-12-22T04:02:59;97844.59;;;5.66;100.00
8318;BME280;4196;48.926;8.964;2023-12-22T04:05:46;97816.41;;;5.41;100.00
8318;BME280;4196;48.926;8.964;2023-12-22T04:08:32;97867.63;;;5.92;100.00
8318;BME280;4196;48.926;8.964;2023-12-22T04:11:18;97799.25;;;5.65;100.00
8318;BME280;4196;48.926;8.964;2023-12-22T04:14:05;97845.41;;;5.80;100.00
8318;BME280;4196;48.926;8.964;2023-12-22T04:16:51;97853.94;;;5.88;100.00
8318;BME280;4196;48.926;8.964;2023-12-22T04:19:39;97824.03;;;5.76;100.00
8318;BME280;4196;48.926;8.964;2023-12-22T04:22:25;97847.13;;;5.86;100.00
8318;BME280;4196;48.926;8.964;2023-12-22T04:25:12;97838.53;;;5.91;100.00
8318;BME280;4196;48.926;8.964;2023-12-22T04:27:58;97839.41;;;5.95;100.00
8318;BME280;4196;48.926;8.964;2023-12-22T04:30:45;97868.47;;;6.15;100.00
8318;BME280;4196;48.926;8.964;2023-12-22T04:33:32;97863.38;;;6.01;100.00
8318;BME280;4196;48.926;8.964;2023-12-22T04:36:18;97867.56;;;6.15;100.00
8318;BME280;4196;48.926;8.964;2023-12-22T04:39:05;97900.06;;;6.34;100.00
8318;BME280;4196;48.926;8.964;2023-12-22T04:41:51;97862.41;;;6.24;100.00
8318;BME280;4196;48.926;8.964;2023-12-22T04:44:37;97886.34;;;6.38;100.00
8318;BME280;4196;48.926;8.964;2023-12-22T04:47:24;97865.00;;;6.22;100.00
8318;BME280;4196;48.926;8.964;2023-12-22T04:50:10;97825.66;;;6.07;100.00
8318;BME280;4196;48.926;8.964;2023-12-22T04:52:56;97906.00;;;6.47;100.00
8318;BME280;4196;48.926;8.964;2023-12-22T04:55:43;97861.53;;;6.28;100.00
8318;BME280;4196;48.926;8.964;2023-12-22T04:58:29;97877.75;;;6.42;100.00
8318;BME280;4196;48.926;8.964;2023-12-22T05:01:16;97929.09;;;6.58;100.00
8318;BME280;4196;48.926;8.964;2023-12-22T05:04:02;97870.06;;;6.35;100.00
8318;BME280;4196;48.926;8.964;2023-12-22T05:06:49;97904.31;;;6.44;100.00
8318;BME280;4196;48.926;8.964;2023-12-22T05:09:35;97946.22;;;6.62;100.00
8318;BME280;4196;48.926;8.964;2023-12-22T05:12:21;97906.00;;;6.47;100.00
8318;BME280;4196;48.926;8.964;2023-12-22T05:15:08;97901.75;;;6.44;100.00
8318;BME280;4196;48.926;8.964;2023-12-22T05:17:55;97870.88;;;6.44;100.00
8318;BME280;4196;48.926;8.964;2023-12-22T05:20:41;97887.13;;;6.56;100.00
8318;BME280;4196;48.926;8.964;2023-12-22T05:23:28;97909.31;;;6.69;100.00
8318;BME280;4196;48.926;8.964;2023-12-22T05:26:18;97891.41;;;6.53;100.00
8318;BME280;4196;48.926;8.964;2023-12-22T05:29:05;97910.22;;;6.62;100.00
8318;BME280;4196;48.926;8.964;2023-12-22T05:31:51;97934.13;;;6.76;100.00
8318;BME280;4196;48.926;8.964;2023-12-22T05:34:37;97889.69;;;6.51;100.00
8318;BME280;4196;48.926;8.964;2023-12-22T05:37:24;97913.59;;;6.74;100.00
8318;BME280;4196;48.926;8.964;2023-12-22T05:40:10;97927.16;;;6.92;100.00
8318;BME280;4196;48.926;8.964;2023-12-22T05:42:58;97930.69;;;6.80;100.00
8318;BME280;4196;48.926;8.964;2023-12-22T05:45:44;97949.44;;;7.00;100.00
8318;BME280;4196;48.926;8.964;2023-12-22T05:48:31;97916.09;;;6.84;100.00
8318;BME280;4196;48.926;8.964;2023-12-22T05:51:17;97910.00;;;6.95;100.00
8318;BME280;4196;48.926;8.964;2023-12-22T05:54:05;97920.19;;;7.09;99.96
8318;BME280;4196;48.926;8.964;2023-12-22T05:56:51;97859.59;;;6.68;100.00
8318;BME280;4196;48.926;8.964;2023-12-22T05:59:41;97898.00;;;6.97;98.12
8318;BME280;4196;48.926;8.964;2023-12-22T06:02:27;97955.41;;;7.06;96.98
8318;BME280;4196;48.926;8.964;2023-12-22T06:05:14;97952.72;;;7.21;97.32
8318;BME280;4196;48.926;8.964;2023-12-22T06:08:00;97942.50;;;7.12;96.22
8318;BME280;4196;48.926;8.964;2023-12-22T06:10:46;97933.88;;;7.16;98.72
8318;BME280;4196;48.926;8.964;2023-12-22T06:13:33;97948.44;;;7.23;98.08
8318;BME280;4196;48.926;8.964;2023-12-22T06:16:19;97927.03;;;7.15;98.08
8318;BME280;4196;48.926;8.964;2023-12-22T06:19:07;97986.97;;;7.32;97.07
8318;BME280;4196;48.926;8.964;2023-12-22T06:21:54;97978.47;;;7.21;96.50
8318;BME280;4196;48.926;8.964;2023-12-22T06:24:40;97957.97;;;7.09;97.58
8318;BME280;4196;48.926;8.964;2023-12-22T06:27:26;97961.41;;;7.11;98.81
8318;BME280;4196;48.926;8.964;2023-12-22T06:30:13;97958.81;;;7.06;99.64
8318;BME280;4196;48.926;8.964;2023-12-22T06:33:26;97993.00;;;7.28;96.69
8318;BME280;4196;48.926;8.964;2023-12-22T06:36:42;98001.59;;;7.27;96.94
8318;BME280;4196;48.926;8.964;2023-12-22T06:40:16;97951.16;;;6.95;94.85
8318;BME280;4196;48.926;8.964;2023-12-22T06:43:03;97824.75;;;6.17;94.98
8318;BME280;4196;48.926;8.964;2023-12-22T06:45:50;97961.50;;;6.92;95.60
8318;BME280;4196;48.926;8.964;2023-12-22T06:48:41;97942.66;;;6.81;94.73
8318;BME280;4196;48.926;8.964;2023-12-22T06:51:29;97879.41;;;6.56;94.40
8318;BME280;4196;48.926;8.964;2023-12-22T06:54:22;97915.25;;;6.77;94.93
8318;BME280;4196;48.926;8.964;2023-12-22T06:57:09;98006.72;;;7.32;95.15
8318;BME280;4196;48.926;8.964;2023-12-22T06:59:57;97980.25;;;7.10;94.80
8318;BME280;4196;48.926;8.964;2023-12-22T07:02:43;98036.69;;;7.43;96.84
8318;BME280;4196;48.926;8.964;2023-12-22T07:05:36;97912.84;;;6.49;98.51
8318;BME280;4196;48.926;8.964;2023-12-22T07:09:57;97887.22;;;6.33;99.61
8318;BME280;4196;48.926;8.964;2023-12-22T07:22:02;97876.19;;;6.08;100.00
8318;BME280;4196;48.926;8.964;2023-12-22T07:24:59;98046.34;;;7.03;100.00
8318;BME280;4196;48.926;8.964;2023-12-22T07:27:58;97988.19;;;6.70;100.00
8318;BME280;4196;48.926;8.964;2023-12-22T07:34:44;97900.16;;;6.16;100.00
8318;BME280;4196;48.926;8.964;2023-12-22T07:37:31;98067.75;;;7.19;100.00
8318;BME280;4196;48.926;8.964;2023-12-22T07:40:18;98017.25;;;6.92;100.00
8318;BME280;4196;48.926;8.964;2023-12-22T07:43:09;97995.00;;;6.77;100.00
8318;BME280;4196;48.926;8.964;2023-12-22T07:46:17;97894.19;;;6.03;100.00
8318;BME280;4196;48.926;8.964;2023-12-22T07:49:27;97859.13;;;5.82;100.00
8318;BME280;4196;48.926;8.964;2023-12-22T07:53:06;98021.66;;;6.64;100.00
8318;BME280;4196;48.926;8.964;2023-12-22T07:56:23;98112.47;;;6.87;100.00
8318;BME280;4196;48.926;8.964;2023-12-22T08:00:45;98133.09;;;6.66;100.00
8318;BME280;4196;48.926;8.964;2023-12-22T08:05:48;98155.41;;;6.51;100.00
8318;BME280;4196;48.926;8.964;2023-12-22T08:10:47;98146.84;;;6.29;100.00
8318;BME280;4196;48.926;8.964;2023-12-22T08:15:17;98146.00;;;6.32;100.00
8318;BME280;4196;48.926;8.964;2023-12-22T08:24:57;97876.22;;;4.24;100.00
8318;BME280;4196;48.926;8.964;2023-12-22T08:29:54;97979.81;;;5.10;100.00
8318;BME280;4196;48.926;8.964;2023-12-22T09:02:14;98004.69;;;5.49;100.00
8318;BME280;4196;48.926;8.964;2023-12-22T09:05:44;97979.84;;;5.39;100.00
8318;BME280;4196;48.926;8.964;2023-12-22T09:09:12;98087.75;;;6.11;100.00
8318;BME280;4196;48.926;8.964;2023-12-22T09:12:00;98007.25;;;5.57;100.00
8318;BME280;4196;48.926;8.964;2023-12-22T09:14:47;97938.78;;;5.27;100.00
8318;BME280;4196;48.926;8.964;2023-12-22T09:17:37;98136.56;;;6.52;100.00
8318;BME280;4196;48.926;8.964;2023-12-22T09:20:24;98117.72;;;6.44;100.00
8318;BME280;4196;48.926;8.964;2023-12-22T09:23:10;98014.94;;;5.77;100.00
8318;BME280;4196;48.926;8.964;2023-12-22T09:25:58;98108.28;;;6.51;100.00
8318;BME280;4196;48.926;8.964;2023-12-22T09:28:50;98038.91;;;6.25;100.00
8318;BME280;4196;48.926;8.964;2023-12-22T09:31:37;98089.38;;;6.63;100.00
8318;BME280;4196;48.926;8.964;2023-12-22T09:34:26;98064.56;;;6.56;100.00
8318;BME280;4196;48.926;8.964;2023-12-22T09:37:13;98003.78;;;6.18;100.00
8318;BME280;4196;48.926;8.964;2023-12-22T09:40:00;98150.16;;;7.07;100.00
8318;BME280;4196;48.926;8.964;2023-12-22T09:42:47;98165.53;;;7.25;100.00
8318;BME280;4196;48.926;8.964;2023-12-22T09:45:36;98095.34;;;6.77;100.00
8318;BME280;4196;48.926;8.964;2023-12-22T09:48:25;98159.56;;;7.17;100.00
8318;BME280;4196;48.926;8.964;2023-12-22T09:51:17;98047.34;;;6.70;100.00
8318;BME280;4196;48.926;8.964;2023-12-22T09:54:04;98063.59;;;6.83;100.00
8318;BME280;4196;48.926;8.964;2023-12-22T09:56:54;98100.41;;;7.01;100.00
8318;BME280;4196;48.926;8.964;2023-12-22T09:59:40;98140.66;;;7.25;100.00
8318;BME280;4196;48.926;8.964;2023-12-22T10:02:29;98156.91;;;7.41;100.00
8318;BME280;4196;48.926;8.964;2023-12-22T10:05:17;98111.50;;;7.19;100.00
8318;BME280;4196;48.926;8.964;2023-12-22T10:08:05;98058.41;;;6.93;100.00
8318;BME280;4196;48.926;8.964;2023-12-22T10:10:54;98035.25;;;6.93;100.00
8318;BME280;4196;48.926;8.964;2023-12-22T10:13:42;98060.94;;;7.07;100.00
8318;BME280;4196;48.926;8.964;2023-12-22T10:16:29;97939.44;;;6.45;100.00
8318;BME280;4196;48.926;8.964;2023-12-22T10:19:16;98054.88;;;7.19;100.00
8318;BME280;4196;48.926;8.964;2023-12-22T10:22:03;98029.16;;;7.13;100.00
8318;BME280;4196;48.926;8.964;2023-12-22T10:24:50;98065.88;;;7.39;100.00
8318;BME280;4196;48.926;8.964;2023-12-22T10:27:37;98029.91;;;7.30;100.00
8318;BME280;4196;48.926;8.964;2023-12-22T10:30:24;98084.72;;;7.55;100.00
8318;BME280;4196;48.926;8.964;2023-12-22T10:33:12;97994.09;;;6.87;100.00
8318;BME280;4196;48.926;8.964;2023-12-22T10:35:59;98055.66;;;7.33;100.00
8318;BME280;4196;48.926;8.964;2023-12-22T10:38:46;97949.63;;;6.68;100.00
8318;BME280;4196;48.926;8.964;2023-12-22T10:41:33;98060.72;;;7.42;100.00
8318;BME280;4196;48.926;8.964;2023-12-22T10:44:19;97987.19;;;6.95;100.00
8318;BME280;4196;48.926;8.964;2023-12-22T10:47:06;98000.84;;;7.13;100.00
8318;BME280;4196;48.926;8.964;2023-12-22T10:49:52;98091.47;;;7.70;100.00
8318;BME280;4196;48.926;8.964;2023-12-22T10:52:40;98086.25;;;7.76;100.00
8318;BME280;4196;48.926;8.964;2023-12-22T10:55:26;97923.91;;;6.67;100.00
8318;BME280;4196;48.926;8.964;2023-12-22T10:58:12;97964.91;;;6.96;100.00
8318;BME280;4196;48.926;8.964;2023-12-22T11:00:59;97913.66;;;6.54;100.00
8318;BME280;4196;48.926;8.964;2023-12-22T11:03:50;98065.88;;;7.45;100.00
8318;BME280;4196;48.926;8.964;2023-12-22T11:06:38;98013.69;;;7.13;100.00
8318;BME280;4196;48.926;8.964;2023-12-22T11:09:31;98008.63;;;7.04;100.00
8318;BME280;4196;48.926;8.964;2023-12-22T11:12:19;97947.91;;;6.63;100.00
8318;BME280;4196;48.926;8.964;2023-12-22T11:15:06;97906.03;;;6.36;100.00
8318;BME280;4196;48.926;8.964;2023-12-22T11:17:55;98014.59;;;7.02;100.00
8318;BME280;4196;48.926;8.964;2023-12-22T11:20:44;98024.81;;;7.18;100.00
8318;BME280;4196;48.926;8.964;2023-12-22T11:23:33;98062.44;;;7.43;100.00
8318;BME280;4196;48.926;8.964;2023-12-22T11:26:23;97958.09;;;6.87;100.00
8318;BME280;4196;48.926;8.964;2023-12-22T11:29:11;97994.84;;;7.11;100.00
8318;BME280;4196;48.926;8.964;2023-12-22T11:31:59;97908.47;;;6.67;100.00
8318;BME280;4196;48.926;8.964;2023-12-22T11:34:46;97934.06;;;6.93;100.00
8318;BME280;4196;48.926;8.964;2023-12-22T11:37:35;98024.53;;;7.64;100.00
8318;BME280;4196;48.926;8.964;2023-12-22T11:40:22;97890.34;;;6.87;100.00
8318;BME280;4196;48.926;8.964;2023-12-22T11:43:08;98002.28;;;7.54;100.00
8318;BME280;4196;48.926;8.964;2023-12-22T11:45:55;97898.94;;;6.83;100.00
8318;BME280;4196;48.926;8.964;2023-12-22T11:48:47;97898.16;;;6.70;100.00
8318;BME280;4196;48.926;8.964;2023-12-22T11:51:34;97935.66;;;7.08;100.00
8318;BME280;4196;48.926;8.964;2023-12-22T11:54:47;97991.22;;;7.39;100.00
8318;BME280;4196;48.926;8.964;2023-12-22T11:57:36;97878.41;;;6.78;100.00
8318;BME280;4196;48.926;8.964;2023-12-22T12:03:11;97945.78;;;7.32;100.00
8318;BME280;4196;48.926;8.964;2023-12-22T12:09:01;97973.06;;;7.55;100.00
8318;BME280;4196;48.926;8.964;2023-12-22T12:14:43;97863.59;;;7.11;100.00
8318;BME280;4196;48.926;8.964;2023-12-22T12:17:29;97941.22;;;7.66;100.00
8318;BME280;4196;48.926;8.964;2023-12-22T12:20:16;97864.28;;;7.25;100.00
8318;BME280;4196;48.926;8.964;2023-12-22T12:23:03;97919.81;;;7.60;100.00
8318;BME280;4196;48.926;8.964;2023-12-22T12:25:52;97868.63;;;7.23;100.00
8318;BME280;4196;48.926;8.964;2023-12-22T12:28:45;97869.38;;;7.34;100.00
8318;BME280;4196;48.926;8.964;2023-12-22T12:31:36;97828.38;;;7.13;100.00
8318;BME280;4196;48.926;8.964;2023-12-22T12:34:26;97906.06;;;7.58;100.00
8318;BME280;4196;48.926;8.964;2023-12-22T12:37:13;97858.19;;;7.35;100.00
8318;BME280;4196;48.926;8.964;2023-12-22T12:40:02;97901.75;;;7.63;100.00
8318;BME280;4196;48.926;8.964;2023-12-22T12:42:58;97868.44;;;7.44;100.00
8318;BME280;4196;48.926;8.964;2023-12-22T12:45:45;97861.59;;;7.40;100.00
8318;BME280;4196;48.926;8.964;2023-12-22T12:48:33;97852.97;;;7.43;100.00
8318;BME280;4196;48.926;8.964;2023-12-22T12:51:19;97881.09;;;7.66;100.00
8318;BME280;4196;48.926;8.964;2023-12-22T12:54:06;97914.28;;;7.96;100.00
8318;BME280;4196;48.926;8.964;2023-12-22T12:56:53;97872.38;;;7.79;100.00
8318;BME280;4196;48.926;8.964;2023-12-22T12:59:44;97895.31;;;8.04;100.00
8318;BME280;4196;48.926;8.964;2023-12-22T13:02:35;97781.78;;;7.39;100.00
8318;BME280;4196;48.926;8.964;2023-12-22T13:05:23;97857.56;;;7.96;100.00
8318;BME280;4196;48.926;8.964;2023-12-22T13:08:11;97901.84;;;8.32;100.00
8318;BME280;4196;48.926;8.964;2023-12-22T13:11:02;97879.69;;;8.16;100.00
8318;BME280;4196;48.926;8.964;2023-12-22T13:13:50;97833.50;;;7.97;100.00
8318;BME280;4196;48.926;8.964;2023-12-22T13:16:39;97751.72;;;7.39;100.00
8318;BME280;4196;48.926;8.964;2023-12-22T13:19:27;97863.41;;;8.12;100.00
8318;BME280;4196;48.926;8.964;2023-12-22T13:22:14;97854.84;;;8.09;100.00
8318;BME280;4196;48.926;8.964;2023-12-22T13:25:01;97770.19;;;7.75;100.00
8318;BME280;4196;48.926;8.964;2023-12-22T13:27:49;97886.06;;;8.57;100.00
8318;BME280;4196;48.926;8.964;2023-12-22T13:30:38;97841.69;;;8.30;100.00
8318;BME280;4196;48.926;8.964;2023-12-22T13:33:33;97846.78;;;8.35;100.00
8318;BME280;4196;48.926;8.964;2023-12-22T13:36:20;97859.63;;;8.41;100.00
8318;BME280;4196;48.926;8.964;2023-12-22T13:39:08;97804.13;;;8.11;100.00
8318;BME280;4196;48.926;8.964;2023-12-22T13:42:24;97745.94;;;7.91;100.00
8318;BME280;4196;48.926;8.964;2023-12-22T13:45:13;97800.63;;;8.15;100.00
8318;BME280;4196;48.926;8.964;2023-12-22T13:48:00;97752.72;;;7.98;100.00
8318;BME280;4196;48.926;8.964;2023-12-22T13:51:00;97889.91;;;8.90;100.00
8318;BME280;4196;48.926;8.964;2023-12-22T13:53:47;97845.66;;;8.56;100.00
8318;BME280;4196;48.926;8.964;2023-12-22T13:56:36;97763.84;;;8.04;100.00
8318;BME280;4196;48.926;8.964;2023-12-22T13:59:32;97854.22;;;8.58;100.00
8318;BME280;4196;48.926;8.964;2023-12-22T14:02:21;97901.16;;;8.87;100.00
8318;BME280;4196;48.926;8.964;2023-12-22T14:05:33;97883.88;;;8.89;100.00
8318;BME280;4196;48.926;8.964;2023-12-22T14:08:24;97706.88;;;7.59;100.00
8318;BME280;4196;48.926;8.964;2023-12-22T14:11:15;97758.69;;;8.02;100.00
8318;BME280;4196;48.926;8.964;2023-12-22T14:14:23;97822.66;;;8.40;100.00
8318;BME280;4196;48.926;8.964;2023-12-22T14:17:25;97818.66;;;8.16;100.00
8318;BME280;4196;48.926;8.964;2023-12-22T14:20:43;97906.34;;;8.84;100.00
8318;BME280;4196;48.926;8.964;2023-12-22T14:23:38;97865.53;;;8.51;100.00
8318;BME280;4196;48.926;8.964;2023-12-22T14:26:24;97845.75;;;8.50;100.00
8318;BME280;4196;48.926;8.964;2023-12-22T14:29:11;97838.84;;;8.50;100.00
8318;BME280;4196;48.926;8.964;2023-12-22T14:31:57;97929.44;;;8.93;100.00
8318;BME280;4196;48.926;8.964;2023-12-22T14:34:47;97902.91;;;8.82;100.00
8318;BME280;4196;48.926;8.964;2023-12-22T14:37:34;97875.53;;;8.72;100.00
8318;BME280;4196;48.926;8.964;2023-12-22T14:40:21;97905.44;;;8.87;100.00
8318;BME280;4196;48.926;8.964;2023-12-22T14:43:08;97816.84;;;8.23;100.00
8318;BME280;4196;48.926;8.964;2023-12-22T14:45:55;97773.22;;;8.08;100.00
8318;BME280;4196;48.926;8.964;2023-12-22T14:48:41;97747.63;;;7.95;100.00
8318;BME280;4196;48.926;8.964;2023-12-22T14:51:28;97780.25;;;7.96;100.00
8318;BME280;4196;48.926;8.964;2023-12-22T14:54:15;97904.75;;;8.74;100.00
8318;BME280;4196;48.926;8.964;2023-12-22T14:57:01;97819.50;;;8.17;100.00
8318;BME280;4196;48.926;8.964;2023-12-22T14:59:48;97845.97;;;8.31;100.00
8318;BME280;4196;48.926;8.964;2023-12-22T15:02:34;97771.78;;;7.88;100.00
8318;BME280;4196;48.926;8.964;2023-12-22T15:05:21;97858.00;;;8.32;100.00
8318;BME280;4196;48.926;8.964;2023-12-22T15:08:08;97898.81;;;8.67;100.00
8318;BME280;4196;48.926;8.964;2023-12-22T15:10:55;97893.69;;;8.66;100.00
8318;BME280;4196;48.926;8.964;2023-12-22T15:13:41;97900.63;;;8.61;100.00
8318;BME280;4196;48.926;8.964;2023-12-22T15:16:28;97898.00;;;8.64;100.00
8318;BME280;4196;48.926;8.964;2023-12-22T15:19:14;97900.63;;;8.62;100.00
8318;BME280;4196;48.926;8.964;2023-12-22T15:22:01;97970.66;;;9.00;100.00
8318;BME280;4196;48.926;8.964;2023-12-22T15:24:50;97921.97;;;8.72;100.00
8318;BME280;4196;48.926;8.964;2023-12-22T15:27:36;97891.41;;;8.43;100.00
8318;BME280;4196;48.926;8.964;2023-12-22T15:30:25;97930.69;;;8.65;100.00
8318;BME280;4196;48.926;8.964;2023-12-22T15:33:11;97922.09;;;8.66;100.00
8318;BME280;4196;48.926;8.964;2023-12-22T15:35:57;97970.97;;;8.77;100.00
8318;BME280;4196;48.926;8.964;2023-12-22T15:38:45;97925.81;;;8.43;100.00
8318;BME280;4196;48.926;8.964;2023-12-22T15:41:33;97868.59;;;8.11;100.00
8318;BME280;4196;48.926;8.964;2023-12-22T15:44:19;97961.59;;;8.68;100.00
8318;BME280;4196;48.926;8.964;2023-12-22T15:47:06;97954.78;;;8.64;100.00
8318;BME280;4196;48.926;8.964;2023-12-22T15:49:53;97959.53;;;8.94;100.00
8318;BME280;4196;48.926;8.964;2023-12-22T15:52:46;97842.81;;;8.11;100.00
8318;BME280;4196;48.926;8.964;2023-12-22T15:56:24;97922.13;;;8.61;100.00
8318;BME280;4196;48.926;8.964;2023-12-22T15:59:11;97866.63;;;8.30;100.00
8318;BME280;4196;48.926;8.964;2023-12-22T16:01:58;97930.63;;;8.69;100.00
8318;BME280;4196;48.926;8.964;2023-12-22T16:04:45;97967.31;;;8.93;100.00
8318;BME280;4196;48.926;8.964;2023-12-22T16:07:31;97964.75;;;8.91;100.00
8318;BME280;4196;48.926;8.964;2023-12-22T16:10:21;97899.09;;;8.48;100.00
8318;BME280;4196;48.926;8.964;2023-12-22T16:13:10;97954.69;;;8.73;100.00
8318;BME280;4196;48.926;8.964;2023-12-22T16:15:59;97963.13;;;8.84;100.00
8318;BME280;4196;48.926;8.964;2023-12-22T16:18:46;97922.09;;;8.66;100.00
8318;BME280;4196;48.926;8.964;2023-12-22T16:21:33;97930.63;;;8.68;100.00
8318;BME280;4196;48.926;8.964;2023-12-22T16:24:20;97908.50;;;8.52;100.00
8318;BME280;4196;48.926;8.964;2023-12-22T16:27:06;97931.56;;;8.64;100.00
8318;BME280;4196;48.926;8.964;2023-12-22T16:29:52;97883.78;;;8.31;100.00
8318;BME280;4196;48.926;8.964;2023-12-22T16:32:39;97979.44;;;8.88;100.00